Time;durP1;ratioP1;P1;durP2;ratioP2;P2;SDS_P1;SDS_P2;PMS_P1;PMS_P2;Temp;Humidity;BMP_temperature;BMP_pressure;BME280_temperature;BME280_humidity;BME280_pressure;Samples;Min_cycle;Max_cycle;Signal;HPM_P1;HPM_P2
2022/06/06 00:00:48;;;;;;;56.65;15.63;;;14.50;99.90;;;;;;5036805;28;20029;-31
2022/06/06 00:03:15;;;;;;;48.17;15.63;;;14.50;99.90;;;;;;5038863;28;20036;-33
2022/06/06 00:05:43;;;;;;;47.83;14.25;;;14.50;99.90;;;;;;5043476;28;20033;-39
2022/06/06 00:08:09;;;;;;;46.90;14.02;;;14.50;99.90;;;;;;5037282;28;20481;-34
2022/06/06 00:10:35;;;;;;;49.45;13.65;;;14.50;99.90;;;;;;5053191;28;20036;-31
2022/06/06 00:13:01;;;;;;;38.85;13.25;;;14.60;99.90;;;;;;5047003;28;20045;-33
2022/06/06 00:15:26;;;;;;;41.47;13.18;;;14.60;99.90;;;;;;5053348;28;20433;-30
2022/06/06 00:17:52;;;;;;;37.72;12.93;;;14.50;99.90;;;;;;5043553;28;20041;-31
2022/06/06 00:20:17;;;;;;;39.55;12.75;;;14.60;99.90;;;;;;5034747;28;20029;-37
2022/06/06 00:22:43;;;;;;;37.95;12.75;;;14.60;99.90;;;;;;5036849;28;20389;-30
2022/06/06 00:25:09;;;;;;;32.78;12.27;;;14.50;99.90;;;;;;5035340;28;20025;-31
2022/06/06 00:27:35;;;;;;;47.03;12.63;;;14.50;99.90;;;;;;5046971;28;20024;-33
2022/06/06 00:30:02;;;;;;;36.83;12.45;;;14.60;99.90;;;;;;5040354;28;20465;-34
2022/06/06 00:35:11;;;;;;;37.83;13.30;;;14.60;99.90;;;;;;5033534;28;20051;-31
2022/06/06 00:37:41;;;;;;;40.88;12.20;;;14.60;99.90;;;;;;5043560;28;20108;-31
2022/06/06 00:40:09;;;;;;;44.30;13.38;;;14.60;99.90;;;;;;5038457;28;20389;-32
2022/06/06 00:42:38;;;;;;;39.58;13.07;;;14.60;99.90;;;;;;5039708;28;20075;-30
2022/06/06 00:45:21;;;;;;;38.42;13.20;;;14.60;99.90;;;;;;5053769;28;20021;-32
2022/06/06 00:48:01;;;;;;;34.45;12.52;;;14.60;99.90;;;;;;5037772;28;20497;-30
2022/06/06 00:50:54;;;;;;;38.60;12.18;;;14.70;99.90;;;;;;5046565;28;20111;-29
2022/06/06 00:53:35;;;;;;;43.17;14.35;;;14.60;99.90;;;;;;5051949;28;20024;-29
2022/06/06 00:56:25;;;;;;;46.83;12.52;;;14.70;99.90;;;;;;5036976;28;20367;-33
2022/06/06 00:58:55;;;;;;;44.47;13.60;;;14.70;99.90;;;;;;5033973;28;20481;-31
2022/06/06 01:01:21;;;;;;;42.60;14.27;;;14.70;99.90;;;;;;5040388;28;20385;-32
2022/06/06 01:03:48;;;;;;;44.40;14.20;;;14.70;99.90;;;;;;5031302;28;20017;-34
2022/06/06 01:06:17;;;;;;;42.33;12.30;;;14.60;99.90;;;;;;5036170;28;20025;-30
2022/06/06 01:08:44;;;;;;;38.53;12.27;;;14.60;99.90;;;;;;5034753;28;20033;-39
2022/06/06 01:11:10;;;;;;;32.30;13.35;;;14.50;99.90;;;;;;5042643;28;20016;-30
2022/06/06 01:13:39;;;;;;;38.72;13.23;;;14.50;99.90;;;;;;5043031;28;20029;-33
2022/06/06 01:16:42;;;;;;;37.17;12.95;;;14.50;99.90;;;;;;5047505;28;20029;-34
2022/06/06 01:19:25;;;;;;;34.42;11.63;;;14.50;99.90;;;;;;5035172;28;20025;-33
2022/06/06 01:22:12;;;;;;;32.75;10.43;;;14.50;99.90;;;;;;5033612;28;20504;-36
2022/06/06 01:25:08;;;;;;;30.45;11.10;;;14.50;99.90;;;;;;5037511;28;20079;-33
2022/06/06 01:27:56;;;;;;;35.20;11.48;;;14.50;99.90;;;;;;5035513;28;20038;-31
2022/06/06 01:30:29;;;;;;;42.38;12.30;;;14.60;99.90;;;;;;5038755;28;20486;-35
2022/06/06 01:33:01;;;;;;;37.10;12.07;;;14.50;99.90;;;;;;5036660;28;20480;-34
2022/06/06 01:35:29;;;;;;;31.10;11.10;;;14.50;99.90;;;;;;5033000;28;20393;-38
2022/06/06 01:37:55;;;;;;;26.80;10.10;;;14.50;99.90;;;;;;5043982;28;20120;-32
2022/06/06 01:40:23;;;;;;;33.20;11.18;;;14.50;99.90;;;;;;5032920;28;20088;-36
2022/06/06 01:43:07;;;;;;;35.75;11.38;;;14.50;99.90;;;;;;5037431;28;20385;-46
2022/06/06 01:45:42;;;;;;;29.65;10.80;;;14.50;99.90;;;;;;5040737;28;20036;-36
2022/06/06 01:48:17;;;;;;;36.97;13.73;;;14.50;99.90;;;;;;5037470;28;20040;-36
2022/06/06 01:50:44;;;;;;;37.10;13.07;;;14.50;99.90;;;;;;5032485;28;20033;-37
2022/06/06 01:53:13;;;;;;;41.83;14.10;;;14.50;99.90;;;;;;5039226;28;20501;-37
2022/06/06 01:55:42;;;;;;;45.25;15.02;;;14.50;99.90;;;;;;5043083;28;20035;-36
2022/06/06 01:58:30;;;;;;;38.45;14.73;;;14.60;99.90;;;;;;5045298;28;20029;-37
2022/06/06 02:00:55;;;;;;;39.80;13.10;;;14.50;99.90;;;;;;5046286;28;20035;-38
2022/06/06 02:03:21;;;;;;;34.90;13.63;;;14.60;99.90;;;;;;5032236;28;20108;-38
2022/06/06 02:05:47;;;;;;;39.70;15.32;;;14.60;99.90;;;;;;5033201;28;20501;-36
2022/06/06 02:08:17;;;;;;;31.73;13.65;;;14.60;99.90;;;;;;5051367;28;20052;-38
2022/06/06 02:10:43;;;;;;;40.83;12.43;;;14.60;99.90;;;;;;5049927;28;20029;-62
2022/06/06 02:13:08;;;;;;;36.78;13.07;;;14.60;99.90;;;;;;5047050;28;20487;-37
2022/06/06 02:15:35;;;;;;;28.77;12.35;;;14.50;99.90;;;;;;5040233;28;20061;-37
2022/06/06 02:18:00;;;;;;;35.00;11.75;;;14.50;99.90;;;;;;5031977;28;20128;-37
2022/06/06 02:20:29;;;;;;;31.77;11.73;;;14.60;99.90;;;;;;5032333;28;20164;-35
2022/06/06 02:22:55;;;;;;;31.77;11.20;;;14.60;99.90;;;;;;5031196;28;20021;-38
2022/06/06 02:25:21;;;;;;;27.48;11.15;;;14.50;99.90;;;;;;5049202;28;20029;-37
2022/06/06 02:27:47;;;;;;;31.75;12.10;;;14.60;99.90;;;;;;5047906;28;20511;-38
2022/06/06 02:30:17;;;;;;;38.97;11.48;;;14.50;99.90;;;;;;5046790;28;20108;-37
2022/06/06 02:32:43;;;;;;;36.42;12.63;;;14.60;99.90;;;;;;5032988;28;20021;-37
2022/06/06 02:35:11;;;;;;;33.60;12.63;;;14.60;99.90;;;;;;5032876;28;20539;-37
2022/06/06 02:37:37;;;;;;;;;;;14.60;99.90;;;;;;5042109;28;20503;-37
2022/06/06 02:40:05;;;;;;;34.30;11.38;;;14.60;99.90;;;;;;5043922;28;19916;-36
2022/06/06 02:42:31;;;;;;;30.98;11.30;;;14.60;99.90;;;;;;5033186;28;20030;-36
2022/06/06 02:44:56;;;;;;;40.72;13.15;;;14.60;99.90;;;;;;5051939;28;20032;-31
2022/06/06 02:47:22;;;;;;;38.72;12.77;;;14.70;99.90;;;;;;5036008;28;20108;-33
2022/06/06 02:49:47;;;;;;;36.95;13.25;;;14.70;99.90;;;;;;5043848;28;20037;-31
2022/06/06 02:52:13;;;;;;;40.38;13.27;;;14.60;99.90;;;;;;5040913;28;20105;-38
2022/06/06 02:54:39;;;;;;;37.97;13.88;;;14.70;99.90;;;;;;5035266;28;20116;-35
2022/06/06 02:57:05;;;;;;;35.70;12.25;;;14.60;99.90;;;;;;5045628;28;20446;-35
2022/06/06 02:59:33;;;;;;;37.28;13.60;;;14.70;99.90;;;;;;5041365;28;20036;-35
2022/06/06 03:01:59;;;;;;;34.60;12.25;;;14.70;99.90;;;;;;5048356;28;20025;-32
2022/06/06 03:04:24;;;;;;;40.13;13.77;;;14.60;99.90;;;;;;5047216;28;20038;-36
2022/06/06 03:07:01;;;;;;;40.00;14.50;;;14.70;99.90;;;;;;5035331;28;20359;-35
2022/06/06 03:09:46;;;;;;;30.95;12.45;;;14.70;99.90;;;;;;5035472;28;20474;-38
2022/06/06 03:12:34;;;;;;;49.65;12.40;;;14.70;99.90;;;;;;5039068;28;20029;-34
2022/06/06 03:15:42;;;;;;;33.00;12.35;;;14.70;99.90;;;;;;5034444;28;20033;-32
2022/06/06 03:21:39;;;;;;;33.42;12.75;;;14.70;99.90;;;;;;5050775;28;20412;-35
2022/06/06 03:24:25;;;;;;;31.42;11.32;;;14.60;99.90;;;;;;5034862;28;20037;-32
2022/06/06 03:27:14;;;;;;;32.67;12.38;;;14.70;99.90;;;;;;5037514;28;20045;-34
2022/06/06 03:30:16;;;;;;;39.08;11.68;;;14.70;99.90;;;;;;5042774;28;20505;-33
2022/06/06 03:32:50;;;;;;;28.85;11.52;;;14.70;99.90;;;;;;5028714;28;20045;-37
2022/06/06 03:35:40;;;;;;;32.42;12.23;;;14.70;99.90;;;;;;5035679;28;20095;-39
2022/06/06 03:38:15;;;;;;;43.67;11.02;;;14.70;99.90;;;;;;5037428;28;20522;-31
2022/06/06 03:41:17;;;;;;;27.75;11.23;;;14.70;99.90;;;;;;5035324;28;20025;-37
2022/06/06 03:44:06;;;;;;;32.88;11.98;;;14.70;99.90;;;;;;5051447;28;20025;-47
2022/06/06 03:46:58;;;;;;;27.10;11.05;;;14.60;99.90;;;;;;5050905;28;20025;-35
2022/06/06 03:49:40;;;;;;;33.03;12.00;;;14.70;99.90;;;;;;5027354;28;20041;-37
2022/06/06 03:52:27;;;;;;;36.85;11.77;;;14.70;99.90;;;;;;5034175;28;20048;-33
2022/06/06 03:55:04;;;;;;;34.58;11.88;;;14.80;99.90;;;;;;5034384;28;20115;-38
2022/06/06 03:57:32;;;;;;;29.02;11.65;;;14.80;99.90;;;;;;5044879;28;20078;-38
2022/06/06 04:00:00;;;;;;;;;;;14.80;99.90;;;;;;5051184;28;20025;-36
2022/06/06 04:02:32;;;;;;;27.83;10.85;;;14.80;99.90;;;;;;5041601;28;20011;-37
2022/06/06 04:05:04;;;;;;;36.60;12.23;;;14.80;99.90;;;;;;5047747;28;20560;-37
2022/06/06 04:07:30;;;;;;;35.10;12.98;;;14.80;99.90;;;;;;5037934;28;20033;-37
2022/06/06 04:09:56;;;;;;;35.20;11.77;;;14.80;99.90;;;;;;5034273;28;20041;-37
2022/06/06 04:12:57;;;;;;;39.95;12.32;;;14.90;99.90;;;;;;5034063;28;20466;-39
2022/06/06 04:15:37;;;;;;;31.33;11.68;;;14.80;99.90;;;;;;5051705;28;20128;-39
2022/06/06 04:18:22;;;;;;;35.92;12.40;;;14.90;99.90;;;;;;5053212;28;20401;-38
2022/06/06 04:20:51;;;;;;;31.58;11.82;;;14.90;99.90;;;;;;5048391;28;20115;-39
2022/06/06 04:23:40;;;;;;;34.97;11.68;;;14.90;99.90;;;;;;5039921;28;20020;-38
2022/06/06 04:26:33;;;;;;;37.95;11.77;;;14.90;99.90;;;;;;5054049;28;20025;-37
2022/06/06 04:29:10;;;;;;;36.63;12.95;;;14.90;99.90;;;;;;5038083;28;20032;-37
2022/06/06 04:32:00;;;;;;;41.38;14.13;;;15.00;99.90;;;;;;5033642;28;20535;-38
2022/06/06 04:34:43;;;;;;;42.28;12.90;;;15.00;99.90;;;;;;5040940;28;20032;-37
2022/06/06 04:37:09;;;;;;;45.22;13.90;;;15.00;99.90;;;;;;5030888;28;20049;-37
2022/06/06 04:39:47;;;;;;;42.35;13.57;;;15.00;99.90;;;;;;5033829;28;20478;-38
2022/06/06 04:42:33;;;;;;;44.03;12.60;;;15.00;99.90;;;;;;5039807;28;20108;-37
2022/06/06 04:45:23;;;;;;;37.03;12.93;;;14.90;99.90;;;;;;5050667;28;20071;-37
2022/06/06 04:47:50;;;;;;;29.52;11.40;;;15.00;99.90;;;;;;5036219;28;20532;-39
2022/06/06 04:50:19;;;;;;;28.27;11.27;;;15.00;99.90;;;;;;5040632;28;20043;-36
2022/06/06 04:52:55;;;;;;;36.55;10.50;;;15.00;99.90;;;;;;5042554;28;20479;-37
2022/06/06 04:55:23;;;;;;;28.33;10.75;;;15.00;99.90;;;;;;5049198;28;20028;-37
2022/06/06 04:57:55;;;;;;;24.05;9.05;;;15.10;99.90;;;;;;5050980;28;20033;-38
2022/06/06 05:00:21;;;;;;;26.05;9.27;;;15.10;99.90;;;;;;5037567;28;20029;-37
2022/06/06 05:02:47;;;;;;;27.33;10.07;;;15.10;99.90;;;;;;5041334;28;20029;-37
2022/06/06 05:05:13;;;;;;;21.70;8.98;;;15.20;99.90;;;;;;5040882;28;20033;-37
2022/06/06 05:08:05;;;;;;;24.63;8.85;;;15.20;99.90;;;;;;5032547;28;20021;-38
2022/06/06 05:10:49;;;;;;;29.40;11.82;;;15.10;99.90;;;;;;5036309;28;20036;-37
2022/06/06 05:13:29;;;;;;;31.58;10.05;;;15.10;99.90;;;;;;5032845;28;20052;-37
2022/06/06 05:16:10;;;;;;;30.75;10.95;;;15.20;99.90;;;;;;5039534;28;20022;-37
2022/06/06 05:18:55;;;;;;;30.08;11.48;;;15.20;99.90;;;;;;5036758;28;20048;-37
2022/06/06 05:21:38;;;;;;;29.73;11.55;;;15.10;99.90;;;;;;5042080;28;20515;-38
2022/06/06 05:24:40;;;;;;;32.67;12.25;;;15.20;99.90;;;;;;5033228;28;20035;-37
2022/06/06 05:27:14;;;;;;;28.83;12.63;;;15.30;99.90;;;;;;5037770;28;20047;-38
2022/06/06 05:30:03;;;;;;;29.10;12.88;;;15.30;99.90;;;;;;5051451;28;20082;-38
2022/06/06 05:32:35;;;;;;;33.33;12.90;;;15.30;99.90;;;;;;5052102;28;20550;-37
2022/06/06 05:35:21;;;;;;;26.95;11.60;;;15.30;99.90;;;;;;5039427;28;20030;-38
2022/06/06 05:38:13;;;;;;;19.25;10.30;;;15.30;99.90;;;;;;5037001;28;20037;-37
2022/06/06 05:41:05;;;;;;;21.88;10.63;;;15.20;99.90;;;;;;5035840;28;20445;-37
2022/06/06 05:43:49;;;;;;;24.13;9.85;;;15.20;99.90;;;;;;5043741;28;20048;-38
2022/06/06 05:46:48;;;;;;;19.90;8.27;;;15.30;99.90;;;;;;5049022;28;20481;-37
2022/06/06 05:49:35;;;;;;;16.33;8.40;;;15.30;99.90;;;;;;5033368;28;20553;-37
2022/06/06 05:52:07;;;;;;;13.55;6.40;;;15.30;99.90;;;;;;5039590;28;20020;-38
2022/06/06 05:54:50;;;;;;;14.45;5.57;;;15.40;99.90;;;;;;5036663;28;20025;-33
2022/06/06 05:57:51;;;;;;;12.18;4.50;;;15.50;99.90;;;;;;5046136;28;20064;-38
2022/06/06 06:00:25;;;;;;;8.15;3.88;;;15.60;99.90;;;;;;5041298;28;20044;-38
2022/06/06 06:03:26;;;;;;;10.70;3.95;;;15.70;99.90;;;;;;5052014;28;20033;-37
2022/06/06 06:06:22;;;;;;;7.70;2.90;;;16.00;99.90;;;;;;5048276;28;20029;-38
2022/06/06 06:09:03;;;;;;;2.67;2.17;;;16.80;99.90;;;;;;5034943;28;20044;-36
2022/06/06 06:12:01;;;;;;;8.15;2.85;;;17.00;99.90;;;;;;5046661;28;20470;-38
2022/06/06 06:14:51;;;;;;;5.65;3.35;;;16.90;99.90;;;;;;5039032;28;20044;-37
2022/06/06 06:17:21;;;;;;;4.88;2.63;;;16.70;99.90;;;;;;5045623;28;20085;-37
2022/06/06 06:20:08;;;;;;;9.82;4.18;;;16.50;99.90;;;;;;5043756;28;20381;-37
2022/06/06 06:22:55;;;;;;;;;;;16.60;99.90;;;;;;5049477;28;20041;-38
2022/06/06 06:25:23;;;;;;;7.40;3.90;;;16.70;99.90;;;;;;5042378;28;19952;-36
2022/06/06 06:27:49;;;;;;;4.78;3.65;;;17.20;99.90;;;;;;5049558;28;20029;-38
2022/06/06 06:30:15;;;;;;;7.47;4.35;;;17.80;99.90;;;;;;5046871;28;20070;-36
2022/06/06 06:32:55;;;;;;;9.43;4.07;;;17.70;99.90;;;;;;5039992;28;20034;-37
2022/06/06 06:35:50;;;;;;;7.13;3.90;;;17.40;99.90;;;;;;5040366;28;20025;-33
2022/06/06 06:38:24;;;;;;;20.02;4.10;;;16.90;99.90;;;;;;5034889;28;20029;-37
2022/06/06 06:41:10;;;;;;;11.90;4.43;;;16.60;99.90;;;;;;5034312;28;20124;-37
2022/06/06 06:43:59;;;;;;;6.65;4.03;;;16.50;99.90;;;;;;5040978;28;20033;-38
2022/06/06 06:46:37;;;;;;;9.65;4.63;;;16.60;99.90;;;;;;5050828;28;20028;-38
2022/06/06 06:49:33;;;;;;;6.97;3.67;;;16.70;99.90;;;;;;5051768;28;20523;-31
2022/06/06 06:52:25;;;;;;;8.00;3.97;;;16.80;99.90;;;;;;5047062;28;20063;-32
2022/06/06 06:55:03;;;;;;;8.10;4.50;;;16.70;99.90;;;;;;5037131;28;20033;-48
2022/06/06 06:57:53;;;;;;;9.25;4.18;;;16.40;99.90;;;;;;5035881;28;20025;-32
2022/06/06 07:00:21;;;;;;;8.45;4.07;;;16.20;99.90;;;;;;5052473;28;20017;-33
2022/06/06 07:09:18;;;;;;;5.32;3.42;;;16.90;99.90;;;;;;5042436;28;20033;-34
2022/06/06 07:11:59;;;;;;;4.82;2.95;;;18.80;99.90;;;;;;5039912;28;20056;-36
2022/06/06 07:14:39;;;;;;;4.63;2.33;;;20.40;99.90;;;;;;5044704;28;20108;-35
2022/06/06 07:17:08;;;;;;;2.92;2.38;;;21.10;99.90;;;;;;5053044;28;20041;-33
2022/06/06 07:19:42;;;;;;;6.53;2.60;;;21.40;99.90;;;;;;5052976;28;20032;-35
2022/06/06 07:22:09;;;;;;;5.38;2.03;;;21.70;99.90;;;;;;5049856;28;20112;-34
2022/06/06 07:24:35;;;;;;;10.13;2.23;;;22.00;99.90;;;;;;5062093;28;20076;-34
2022/06/06 07:27:01;;;;;;;3.00;2.53;;;21.90;99.90;;;;;;5040609;28;20053;-36
2022/06/06 07:29:27;;;;;;;6.38;2.97;;;21.00;99.90;;;;;;5047566;28;20492;-35
2022/06/06 07:32:05;;;;;;;9.25;2.80;;;19.70;99.90;;;;;;5038299;28;20041;-33
2022/06/06 07:34:41;;;;;;;6.15;2.83;;;18.90;99.90;;;;;;5051901;28;20044;-34
2022/06/06 07:37:47;;;;;;;6.07;2.80;;;18.10;99.90;;;;;;5041090;28;20469;-35
2022/06/06 07:40:46;;;;;;;6.55;3.13;;;17.70;99.90;;;;;;5033502;28;20120;-35
2022/06/06 07:43:30;;;;;;;5.53;2.35;;;18.00;99.90;;;;;;5042912;28;20044;-33
2022/06/06 07:46:17;;;;;;;3.92;2.22;;;18.30;99.90;;;;;;5046300;28;20037;-35
2022/06/06 07:49:04;;;;;;;7.43;2.60;;;18.00;99.90;;;;;;5046347;28;20040;-34
2022/06/06 07:51:32;;;;;;;;;;;17.60;99.90;;;;;;5044271;28;20029;-31
2022/06/06 07:54:04;;;;;;;3.22;2.28;;;17.30;99.90;;;;;;5042093;28;19908;-38
2022/06/06 07:56:47;;;;;;;4.43;2.47;;;17.40;99.90;;;;;;5052445;28;20496;-38
2022/06/06 07:59:16;;;;;;;6.05;2.22;;;17.70;99.90;;;;;;5050575;28;20033;-33
2022/06/06 08:02:14;;;;;;;5.85;2.90;;;17.90;99.90;;;;;;5051732;28;20104;-35
2022/06/06 08:04:47;;;;;;;2.78;2.40;;;18.20;99.90;;;;;;5044054;28;20508;-35
2022/06/06 08:07:23;;;;;;;5.75;1.92;;;18.60;99.90;;;;;;5050505;28;20061;-34
2022/06/06 08:10:09;;;;;;;11.00;2.65;;;18.70;99.90;;;;;;5047893;28;20492;-35
2022/06/06 08:13:00;;;;;;;4.38;2.33;;;18.50;99.90;;;;;;5047772;28;20116;-36
2022/06/06 08:15:47;;;;;;;8.30;2.33;;;18.30;99.90;;;;;;5039805;28;20036;-35
2022/06/06 08:18:25;;;;;;;4.15;1.90;;;18.10;99.90;;;;;;5047559;28;20056;-33
2022/06/06 08:21:09;;;;;;;2.88;1.55;;;18.20;99.90;;;;;;5045202;28;20040;-34
2022/06/06 08:23:37;;;;;;;2.83;1.90;;;18.00;99.90;;;;;;5050565;28;20031;-37
2022/06/06 08:26:03;;;;;;;;;;;17.90;99.90;;;;;;5054967;28;20493;-36
2022/06/06 08:28:31;;;;;;;2.88;2.13;;;18.10;99.90;;;;;;5035338;28;19916;-34
2022/06/06 08:30:57;;;;;;;4.68;1.85;;;18.30;99.90;;;;;;5046528;28;20374;-37
2022/06/06 08:33:23;;;;;;;3.83;2.63;;;18.40;99.90;;;;;;5046553;28;20075;-34
2022/06/06 08:36:03;;;;;;;4.30;1.98;;;18.30;99.90;;;;;;5031694;28;20040;-32
2022/06/06 08:38:56;;;;;;;6.15;2.03;;;18.40;99.90;;;;;;5041934;28;20412;-35
2022/06/06 08:41:36;;;;;;;6.43;1.90;;;18.80;99.90;;;;;;5039450;28;20021;-38
2022/06/06 08:44:39;;;;;;;6.63;2.28;;;18.80;99.90;;;;;;5038092;28;20429;-32
2022/06/06 08:47:19;;;;;;;4.70;1.90;;;18.50;99.90;;;;;;5042009;28;20095;-35
2022/06/06 08:53:08;;;;;;;1.48;1.38;;;18.10;99.90;;;;;;5042639;28;20040;-34
2022/06/06 08:56:18;;;;;;;6.43;2.17;;;17.80;99.90;;;;;;5034132;28;20490;-35
2022/06/06 08:59:08;;;;;;;2.60;1.80;;;17.70;99.90;;;;;;5039207;28;20040;-48
2022/06/06 09:02:05;;;;;;;2.40;1.40;;;17.60;99.90;;;;;;5051102;28;20047;-36
2022/06/06 09:04:56;;;;;;;3.58;1.70;;;17.50;99.90;;;;;;5048523;28;20036;-36
2022/06/06 09:07:49;;;;;;;2.22;1.90;;;17.90;99.90;;;;;;5037301;28;20029;-36
2022/06/06 09:10:47;;;;;;;5.85;1.73;;;18.10;99.90;;;;;;5041577;28;20029;-36
2022/06/06 09:13:12;;;;;;;3.78;1.70;;;18.30;99.90;;;;;;5016423;28;20410;-31
2022/06/06 09:15:38;;;;;;;4.20;1.60;;;18.50;99.90;;;;;;5051015;28;20018;-34
2022/06/06 09:18:29;;;;;;;6.22;1.73;;;18.90;99.90;;;;;;5047674;28;20041;-33
2022/06/06 09:20:55;;;;;;;2.97;1.40;;;19.10;99.90;;;;;;5034033;28;20040;-31
2022/06/06 09:23:30;;;;;;;2.53;1.30;;;19.20;99.90;;;;;;5036615;28;20079;-36
2022/06/06 09:26:25;;;;;;;1.40;1.27;;;19.20;99.90;;;;;;5038472;28;20033;-39
2022/06/06 09:29:08;;;;;;;1.58;1.23;;;19.10;99.90;;;;;;5023603;28;20048;-36
2022/06/06 09:31:37;;;;;;;2.85;1.40;;;19.30;99.90;;;;;;5032023;28;20025;-34
2022/06/06 09:34:51;;;;;;;3.42;1.60;;;19.30;99.90;;;;;;5043577;28;20043;-35
2022/06/06 09:37:40;;;;;;;2.58;1.08;;;19.30;99.90;;;;;;5048688;28;20032;-32
2022/06/06 09:40:47;;;;;;;5.65;1.33;;;19.30;99.90;;;;;;5050699;28;20087;-37
2022/06/06 09:43:50;;;;;;;1.08;1.08;;;19.60;99.90;;;;;;5032162;28;20477;-34
2022/06/06 09:46:21;;;;;;;3.95;1.25;;;19.50;99.90;;;;;;5035527;28;20037;-37
2022/06/06 09:49:08;;;;;;;4.75;1.15;;;19.30;99.90;;;;;;5038243;28;20025;-39
2022/06/06 09:52:08;;;;;;;3.72;1.65;;;19.30;99.90;;;;;;5042274;28;20481;-38
2022/06/06 10:01:14;;;;;;;3.50;2.08;;;19.10;99.90;;;;;;5055290;28;20064;-34
2022/06/06 10:04:01;;;;;;;0.90;0.90;;;18.90;99.90;;;;;;5035226;28;20045;-35
2022/06/06 10:06:59;;;;;;;1.90;1.48;;;18.50;99.90;;;;;;5043489;28;20033;-34
2022/06/06 10:09:42;;;;;;;5.38;1.88;;;18.00;99.90;;;;;;5046335;28;20509;-34
2022/06/06 10:12:10;;;;;;;5.13;1.77;;;17.50;99.90;;;;;;5042205;28;20474;-36
2022/06/06 10:15:02;;;;;;;2.75;0.52;;;17.10;99.90;;;;;;5043106;28;20022;-40
2022/06/06 10:17:49;;;;;;;2.55;1.00;;;16.20;99.90;;;;;;5052081;28;20052;-35
2022/06/06 10:20:51;;;;;;;2.63;1.00;;;15.20;99.90;;;;;;5039489;28;20025;-33
2022/06/06 10:23:32;;;;;;;4.45;0.60;;;14.70;99.90;;;;;;5037816;28;20041;-31
2022/06/06 10:26:16;;;;;;;0.77;0.77;;;14.30;99.90;;;;;;5047247;28;20052;-35
2022/06/06 10:30:10;;;;;;;1.77;1.20;;;14.10;99.90;;;;;;5046930;28;20103;-35
2022/06/06 10:32:27;;;;;;;1.88;1.67;;;14.10;99.90;;;;;;5052071;28;20033;-35
2022/06/06 10:35:02;;;;;;;9.80;2.40;;;14.40;99.90;;;;;;5054329;28;20082;-37
2022/06/06 10:37:37;;;;;;;3.83;2.33;;;14.60;99.90;;;;;;5035709;28;20021;-38
2022/06/06 10:40:27;;;;;;;6.30;2.60;;;14.70;99.90;;;;;;5039814;28;20043;-33
2022/06/06 10:43:05;;;;;;;3.95;2.78;;;14.70;99.90;;;;;;5040783;28;20469;-32
2022/06/06 10:45:43;;;;;;;7.43;3.20;;;14.80;99.90;;;;;;5041565;28;20474;-30
2022/06/06 10:48:39;;;;;;;5.50;4.20;;;14.90;99.90;;;;;;5046537;28;20041;-38
2022/06/06 10:51:39;;;;;;;5.90;4.20;;;15.00;99.90;;;;;;5043173;28;20037;-32
2022/06/06 10:54:26;;;;;;;9.23;4.03;;;15.20;99.90;;;;;;5044949;28;20535;-38
2022/06/06 10:57:27;;;;;;;5.22;3.63;;;15.40;99.90;;;;;;5035254;28;20393;-34
2022/06/06 10:59:58;;;;;;;7.13;3.60;;;15.70;99.90;;;;;;5036452;28;20493;-37
2022/06/06 11:03:04;;;;;;;9.27;3.55;;;16.10;99.90;;;;;;5036756;28;20108;-36
2022/06/06 11:05:36;;;;;;;3.15;2.90;;;16.30;99.90;;;;;;5035465;28;20057;-32
2022/06/06 11:08:30;;;;;;;2.65;2.33;;;16.30;99.90;;;;;;5035797;28;20370;-33
2022/06/06 11:11:33;;;;;;;7.10;1.70;;;16.20;99.90;;;;;;5036493;28;20075;-40
2022/06/06 11:14:07;;;;;;;2.00;1.30;;;16.10;99.90;;;;;;5039992;28;20025;-31
2022/06/06 11:16:52;;;;;;;4.43;1.63;;;16.00;99.90;;;;;;5045657;28;20485;-37
2022/06/06 11:19:42;;;;;;;1.98;1.88;;;16.00;99.90;;;;;;5043394;28;20021;-32
2022/06/06 11:22:22;;;;;;;2.35;1.90;;;15.90;99.90;;;;;;5033522;28;20028;-37
2022/06/06 11:25:11;;;;;;;3.70;2.40;;;15.90;99.90;;;;;;5047797;28;20025;-33
2022/06/06 11:28:04;;;;;;;8.32;3.17;;;15.80;99.90;;;;;;5038230;28;20033;-36
2022/06/06 11:31:03;;;;;;;4.00;2.83;;;15.80;99.90;;;;;;5041788;28;20036;-34
2022/06/06 11:34:00;;;;;;;7.95;3.30;;;15.80;99.90;;;;;;5046825;28;20055;-36
2022/06/06 11:36:34;;;;;;;6.50;3.38;;;15.90;99.90;;;;;;5043405;28;20507;-34
2022/06/06 11:39:24;;;;;;;6.68;3.55;;;16.10;99.90;;;;;;5035419;28;20029;-36
2022/06/06 11:41:56;;;;;;;11.55;4.72;;;16.30;99.90;;;;;;5031769;28;20020;-32
2022/06/06 11:44:41;;;;;;;6.13;3.22;;;16.40;99.90;;;;;;5032159;28;20512;-34
2022/06/06 11:47:34;;;;;;;7.03;3.55;;;16.40;99.90;;;;;;5027776;28;20025;-37
2022/06/06 11:50:35;;;;;;;6.68;3.30;;;16.30;99.90;;;;;;5028494;28;20075;-34
2022/06/06 11:53:29;;;;;;;6.82;3.47;;;16.10;99.90;;;;;;5030636;28;20041;-32
2022/06/06 11:56:26;;;;;;;7.05;3.85;;;15.80;99.90;;;;;;5029246;28;20546;-35
2022/06/06 11:59:12;;;;;;;9.13;4.13;;;15.70;99.90;;;;;;5028946;28;20355;-36
2022/06/06 12:02:16;;;;;;;3.83;3.20;;;15.70;99.90;;;;;;5029318;28;20033;-33
2022/06/06 12:05:09;;;;;;;9.75;2.97;;;15.80;99.90;;;;;;5030740;28;20075;-40
2022/06/06 12:07:57;;;;;;;4.95;3.25;;;15.70;99.90;;;;;;5030444;28;20064;-32
2022/06/06 12:10:23;;;;;;;;;;;15.50;99.90;;;;;;5034252;28;20490;-39
2022/06/06 12:13:24;;;;;;;4.28;2.33;;;15.40;99.90;;;;;;5028723;28;19917;-32
2022/06/06 12:16:16;;;;;;;5.47;2.75;;;15.30;99.90;;;;;;5028728;28;20025;-36
2022/06/06 12:19:03;;;;;;;4.88;2.67;;;15.20;99.90;;;;;;5030953;28;20029;-39
2022/06/06 12:22:06;;;;;;;6.18;2.80;;;15.10;99.90;;;;;;5027957;28;20025;-36
2022/06/06 12:25:00;;;;;;;11.88;3.67;;;15.00;99.90;;;;;;5030459;28;20041;-35
2022/06/06 12:27:50;;;;;;;3.80;3.33;;;14.90;99.90;;;;;;5029075;28;20035;-36
2022/06/06 12:30:40;;;;;;;7.82;4.03;;;15.00;99.90;;;;;;5032186;28;20033;-31
2022/06/06 12:33:32;;;;;;;7.13;3.60;;;15.00;99.90;;;;;;5028355;28;20033;-31
2022/06/06 12:36:06;;;;;;;7.57;4.32;;;15.10;99.90;;;;;;5029257;28;20474;-34
2022/06/06 12:39:10;;;;;;;8.30;3.90;;;15.30;99.90;;;;;;5028014;28;20036;-34
2022/06/06 12:42:12;;;;;;;14.63;5.32;;;15.40;99.90;;;;;;5028067;28;20164;-36
2022/06/06 12:45:00;;;;;;;7.28;4.55;;;15.50;99.90;;;;;;5027636;28;20584;-35
2022/06/06 12:47:37;;;;;;;;;;;15.40;99.90;;;;;;5029035;28;20033;-32
2022/06/06 12:50:34;;;;;;;11.45;4.88;;;15.40;99.90;;;;;;5028057;28;19916;-37
2022/06/06 12:53:24;;;;;;;3.25;2.83;;;15.40;99.90;;;;;;5024298;28;20778;-34
2022/06/06 12:56:18;;;;;;;5.07;3.95;;;15.30;99.90;;;;;;5030111;28;20113;-33
2022/06/06 12:58:49;;;;;;;8.20;3.67;;;15.20;99.90;;;;;;5031367;28;20033;-39
2022/06/06 13:01:37;;;;;;;5.30;3.97;;;15.10;99.90;;;;;;5030150;28;20025;-34
2022/06/06 13:04:30;;;;;;;7.57;3.72;;;15.00;99.90;;;;;;5029688;28;20057;-33
2022/06/06 13:07:17;;;;;;;8.65;4.20;;;14.90;99.90;;;;;;5030590;28;20539;-33
2022/06/06 13:10:18;;;;;;;4.18;3.63;;;14.70;99.90;;;;;;5029038;28;20037;-32
2022/06/06 13:13:02;;;;;;;6.90;4.20;;;14.60;99.90;;;;;;5031086;28;20040;-38
2022/06/06 13:15:58;;;;;;;5.13;3.85;;;14.60;99.90;;;;;;5029673;28;20034;-41
2022/06/06 13:18:48;;;;;;;7.63;3.92;;;14.50;99.90;;;;;;5028062;28;20042;-33
2022/06/06 13:21:39;;;;;;;4.75;3.58;;;14.50;99.90;;;;;;5026880;28;20108;-33
2022/06/06 13:24:07;;;;;;;2.75;2.38;;;14.60;99.90;;;;;;5029006;28;20025;-34
2022/06/06 13:26:50;;;;;;;6.93;2.78;;;14.50;99.90;;;;;;5028554;28;20496;-33
2022/06/06 13:29:36;;;;;;;2.67;2.00;;;14.50;99.90;;;;;;5028291;28;20033;-35
2022/06/06 13:32:17;;;;;;;7.07;2.40;;;14.50;99.90;;;;;;5025716;28;20060;-34
2022/06/06 13:34:57;;;;;;;2.40;1.35;;;14.40;99.90;;;;;;5030851;28;20033;-36
2022/06/06 13:37:42;;;;;;;4.70;1.40;;;14.40;99.90;;;;;;5025769;28;20037;-36
2022/06/06 13:40:37;;;;;;;7.00;1.50;;;14.30;99.90;;;;;;5026448;28;20045;-33
2022/06/06 13:43:49;;;;;;;1.95;1.00;;;14.10;99.90;;;;;;5026048;28;20029;-36
2022/06/06 13:46:56;;;;;;;3.22;1.10;;;14.00;99.90;;;;;;5025122;28;20041;-38
2022/06/06 13:49:53;;;;;;;4.85;1.30;;;13.90;99.90;;;;;;5028576;28;20077;-35
2022/06/06 13:52:37;;;;;;;1.48;1.38;;;13.90;99.90;;;;;;5025649;28;20120;-38
2022/06/06 13:55:26;;;;;;;2.65;1.35;;;14.00;99.90;;;;;;5031617;28;20029;-34
2022/06/06 13:58:04;;;;;;;5.55;1.70;;;14.00;99.90;;;;;;5025364;28;20048;-35
2022/06/06 14:00:38;;;;;;;5.05;1.17;;;14.00;99.90;;;;;;5030710;28;20021;-33
2022/06/06 14:03:35;;;;;;;1.77;1.30;;;14.10;99.90;;;;;;5026564;28;20502;-34
2022/06/06 14:06:39;;;;;;;2.08;1.40;;;14.00;99.90;;;;;;5028150;28;20492;-32
2022/06/06 14:09:06;;;;;;;2.92;1.35;;;14.10;99.90;;;;;;5031418;28;20062;-32
2022/06/06 14:11:53;;;;;;;1.27;1.17;;;14.00;99.90;;;;;;5034071;28;20036;-35
2022/06/06 14:14:21;;;;;;;3.60;1.00;;;14.10;99.90;;;;;;5026699;28;20489;-36